createdAt,value
2022-10-07T00:04:10.865Z,3.75
2022-10-07T00:09:12.108Z,3.80
2022-10-07T00:14:13.377Z,3.40
2022-10-07T00:19:14.661Z,3.45
2022-10-07T00:24:15.998Z,3.50
2022-10-07T00:29:17.235Z,3.60
2022-10-07T00:34:18.464Z,3.90
2022-10-07T00:39:19.728Z,3.97
2022-10-07T00:44:30.077Z,3.70
2022-10-07T00:49:41.100Z,3.70
2022-10-07T00:54:43.079Z,3.70
2022-10-07T00:59:44.947Z,3.70
2022-10-07T01:04:46.918Z,3.13
2022-10-07T01:09:50.675Z,3.70
2022-10-07T01:14:55.360Z,3.47
2022-10-07T01:19:56.587Z,3.53
2022-10-07T01:24:57.813Z,3.80
2022-10-07T01:30:03.227Z,3.50
2022-10-07T01:35:06.745Z,3.78
2022-10-07T01:40:13.630Z,4.00
2022-10-07T01:45:21.158Z,3.73
2022-10-07T01:50:24.747Z,3.38
2022-10-07T01:55:52.189Z,3.63
2022-10-07T02:01:06.173Z,3.33
2022-10-07T02:06:22.006Z,3.88
2022-10-07T02:11:30.491Z,3.13
2022-10-07T02:16:36.702Z,3.80
2022-10-07T02:21:39.123Z,3.40
2022-10-07T02:26:41.477Z,3.70
2022-10-07T02:31:44.363Z,3.63
2022-10-07T02:36:54.876Z,3.90
2022-10-07T02:41:56.174Z,4.07
2022-10-07T02:47:19.581Z,3.73
2022-10-07T02:52:22.104Z,4.18
2022-10-07T02:57:24.602Z,4.10
2022-10-07T03:02:30.174Z,4.10
2022-10-07T03:07:32.818Z,3.20
2022-10-07T03:12:34.056Z,3.60
2022-10-07T03:17:35.324Z,3.70
2022-10-07T03:22:36.611Z,3.50
2022-10-07T03:27:38.476Z,3.13
2022-10-07T03:32:40.638Z,3.10
2022-10-07T03:37:42.463Z,3.05
2022-10-07T03:42:43.929Z,3.00
2022-10-07T03:47:45.325Z,2.70
2022-10-07T03:52:47.020Z,2.72
2022-10-07T03:57:53.364Z,2.60
2022-10-07T04:02:58.273Z,2.70
2022-10-07T04:07:59.616Z,3.28
2022-10-07T04:13:01.010Z,2.42
2022-10-07T04:18:02.258Z,2.97
2022-10-07T04:23:03.737Z,2.72
2022-10-07T04:28:07.069Z,2.93
2022-10-07T04:33:08.514Z,3.03
2022-10-07T04:38:10.504Z,2.58
2022-10-07T04:43:26.887Z,2.00
2022-10-07T04:48:28.153Z,2.60
2022-10-07T04:53:29.475Z,2.70
2022-10-07T04:58:31.579Z,3.10
2022-10-07T05:03:35.601Z,3.33
2022-10-07T05:08:37.080Z,2.08
2022-10-07T05:13:38.817Z,2.13
2022-10-07T05:18:40.072Z,2.23
2022-10-07T05:23:41.312Z,2.53
2022-10-07T05:28:44.445Z,2.10
2022-10-07T05:33:46.639Z,2.90
2022-10-07T05:38:47.897Z,2.25
2022-10-07T05:43:49.126Z,2.50
2022-10-07T05:48:54.061Z,3.67
2022-10-07T05:53:55.829Z,2.10
2022-10-07T05:58:57.277Z,2.30
2022-10-07T06:03:58.581Z,2.53
2022-10-07T06:09:19.783Z,2.33
2022-10-07T06:14:20.995Z,2.27
2022-10-07T06:19:24.944Z,2.13
2022-10-07T06:24:26.269Z,2.63
2022-10-07T06:29:28.503Z,2.50
2022-10-07T06:34:29.732Z,2.10
2022-10-07T06:39:31.048Z,1.88
2022-10-07T06:44:32.346Z,2.50
2022-10-07T06:49:33.599Z,3.37
2022-10-07T06:54:34.850Z,2.47
2022-10-07T06:59:36.103Z,2.10
2022-10-07T07:04:37.341Z,1.80
2022-10-07T07:09:38.617Z,1.98
2022-10-07T07:14:42.550Z,10.27
2022-10-07T07:19:43.788Z,2.53
2022-10-07T07:24:45.097Z,2.65
2022-10-07T07:29:46.326Z,2.60
2022-10-07T07:34:47.645Z,3.27
2022-10-07T07:39:48.903Z,2.85
2022-10-07T07:44:50.170Z,4.10
2022-10-07T07:49:51.476Z,2.70
2022-10-07T07:54:57.649Z,3.60
2022-10-07T07:59:58.897Z,2.75
2022-10-07T08:05:00.148Z,3.10
2022-10-07T08:10:01.496Z,2.72
2022-10-07T08:15:02.857Z,2.87
2022-10-07T08:20:04.258Z,2.47
2022-10-07T08:25:05.765Z,2.60
2022-10-07T08:30:08.586Z,3.97
2022-10-07T08:35:09.834Z,2.60
2022-10-07T08:40:15.865Z,2.70
2022-10-07T08:45:29.314Z,2.95
2022-10-07T08:50:45.841Z,2.77
2022-10-07T08:55:55.064Z,2.60
2022-10-07T09:01:03.351Z,4.45
2022-10-07T09:06:09.740Z,3.00
2022-10-07T09:11:18.098Z,2.70
2022-10-07T09:16:40.421Z,2.90
2022-10-07T09:21:51.126Z,3.97
2022-10-07T09:26:57.136Z,3.10
2022-10-07T09:31:58.516Z,3.00
2022-10-07T09:37:17.095Z,3.50
2022-10-07T09:42:54.036Z,3.53
2022-10-07T09:47:56.541Z,3.40
2022-10-07T09:52:57.862Z,3.53
2022-10-07T09:58:00.331Z,3.30
2022-10-07T10:03:06.085Z,4.87
2022-10-07T10:08:20.927Z,3.00
2022-10-07T10:13:42.430Z,3.25
2022-10-07T10:18:52.922Z,3.17
2022-10-07T10:24:01.634Z,3.50
2022-10-07T10:29:21.507Z,3.13
2022-10-07T10:34:36.071Z,3.20
2022-10-07T10:39:47.450Z,2.95
2022-10-07T10:45:00.114Z,3.08
2022-10-07T10:50:08.718Z,4.23
2022-10-07T10:55:22.590Z,3.67
2022-10-07T11:00:23.997Z,3.80
2022-10-07T11:05:31.948Z,3.80
2022-10-07T11:10:45.543Z,3.10
2022-10-07T11:15:49.107Z,3.30
2022-10-07T11:20:50.954Z,3.10
2022-10-07T11:25:52.181Z,3.80
2022-10-07T11:31:10.568Z,4.55
2022-10-07T11:36:21.686Z,3.28
2022-10-07T11:41:29.816Z,3.00
2022-10-07T11:46:36.366Z,2.53
2022-10-07T11:51:39.839Z,3.25
2022-10-07T11:56:45.435Z,3.00
2022-10-07T12:01:51.505Z,3.10
2022-10-07T12:07:11.894Z,2.92
2022-10-07T12:12:13.164Z,2.58
2022-10-07T12:17:19.190Z,3.00
2022-10-07T12:22:20.534Z,2.97
2022-10-07T12:27:28.855Z,3.20
2022-10-07T12:32:42.467Z,3.40
2022-10-07T12:37:49.945Z,3.33
2022-10-07T12:42:53.433Z,3.42
2022-10-07T12:47:56.658Z,3.40
2022-10-07T12:53:00.805Z,3.00
2022-10-07T12:58:23.482Z,3.42
2022-10-07T13:03:36.417Z,4.05
2022-10-07T13:08:56.331Z,5.00
2022-10-07T13:14:12.117Z,3.70
2022-10-07T13:19:21.352Z,3.40
2022-10-07T13:24:24.287Z,3.50
2022-10-07T13:29:25.489Z,4.10
2022-10-07T13:34:28.085Z,3.97
2022-10-07T13:39:30.580Z,3.50
2022-10-07T13:44:32.539Z,3.50
2022-10-07T13:49:35.760Z,3.60
2022-10-07T13:54:37.243Z,3.40
2022-10-07T13:59:38.925Z,3.83
2022-10-07T14:04:50.939Z,3.60
2022-10-07T14:09:58.189Z,3.60
2022-10-07T14:15:01.894Z,3.67
2022-10-07T14:20:05.818Z,3.90
2022-10-07T14:25:16.452Z,4.80
2022-10-07T14:30:56.656Z,3.70
2022-10-07T14:36:08.255Z,4.47
2022-10-07T14:41:10.107Z,4.45
2022-10-07T14:46:18.971Z,3.17
2022-10-07T14:51:29.483Z,3.63
2022-10-07T14:56:32.164Z,4.57
2022-10-07T15:01:33.708Z,4.10
2022-10-07T15:06:35.012Z,3.93
2022-10-07T15:11:36.926Z,3.57
2022-10-07T15:16:38.793Z,3.60
2022-10-07T15:21:40.087Z,4.18
2022-10-07T15:26:41.874Z,3.67
2022-10-07T15:31:43.256Z,4.32
2022-10-07T15:36:44.943Z,4.45
2022-10-07T15:41:46.186Z,4.30
2022-10-07T15:46:48.091Z,3.67
2022-10-07T15:51:49.636Z,3.70
2022-10-07T15:56:50.940Z,4.80
2022-10-07T16:01:52.399Z,3.80
2022-10-07T16:06:53.725Z,4.78
2022-10-07T16:11:54.959Z,5.70
2022-10-07T16:16:58.011Z,5.27
2022-10-07T16:21:59.313Z,5.03
2022-10-07T16:27:00.612Z,5.22
2022-10-07T16:32:02.075Z,4.60
2022-10-07T16:37:03.362Z,5.00
2022-10-07T16:42:04.637Z,6.28
2022-10-07T16:47:06.151Z,5.03
2022-10-07T16:52:10.733Z,6.20
2022-10-07T16:57:11.976Z,5.38
2022-10-07T17:02:13.248Z,4.82
2022-10-07T17:07:14.762Z,4.97
2022-10-07T17:12:16.217Z,5.20
2022-10-07T17:17:18.935Z,4.65
2022-10-07T17:22:20.153Z,6.30
2022-10-07T17:27:21.401Z,5.32
2022-10-07T17:32:22.734Z,6.70
2022-10-07T17:37:24.845Z,4.10
2022-10-07T17:42:26.115Z,5.00
2022-10-07T17:47:27.349Z,5.85
2022-10-07T17:52:28.596Z,4.90
2022-10-07T17:57:30.039Z,5.30
2022-10-07T18:02:31.456Z,5.95
2022-10-07T18:07:32.718Z,6.13
2022-10-07T18:12:52.836Z,6.13
2022-10-07T18:17:54.444Z,8.60
2022-10-07T18:22:56.884Z,6.32
2022-10-07T18:27:58.166Z,6.43
2022-10-07T18:32:59.394Z,6.30
2022-10-07T18:38:00.649Z,7.35
2022-10-07T18:43:01.881Z,6.30
2022-10-07T18:48:03.140Z,7.33
2022-10-07T18:53:04.428Z,5.85
2022-10-07T18:58:05.706Z,5.75
2022-10-07T19:03:06.998Z,6.40
2022-10-07T19:08:08.335Z,6.78
2022-10-07T19:13:32.484Z,6.90
2022-10-07T19:18:33.989Z,6.73
2022-10-07T19:23:35.262Z,8.80
2022-10-07T19:28:37.599Z,6.35
2022-10-07T19:33:39.047Z,6.67
2022-10-07T19:38:44.401Z,7.30
2022-10-07T19:43:46.808Z,7.22
2022-10-07T19:48:48.384Z,6.80
2022-10-07T19:53:51.372Z,7.10
2022-10-07T19:58:54.230Z,7.43
2022-10-07T20:03:56.460Z,7.67
2022-10-07T20:08:58.369Z,7.10
2022-10-07T20:14:02.873Z,6.32
2022-10-07T20:19:05.676Z,6.17
2022-10-07T20:24:07.738Z,6.30
2022-10-07T20:29:13.641Z,5.85
2022-10-07T20:34:16.246Z,5.77
2022-10-07T20:39:37.021Z,5.78
2022-10-07T20:44:38.652Z,5.85
2022-10-07T20:49:41.930Z,6.00
2022-10-07T20:54:43.822Z,7.35
2022-10-07T20:59:45.232Z,6.50
2022-10-07T21:04:49.428Z,7.27
2022-10-07T21:09:50.713Z,7.30
2022-10-07T21:14:54.903Z,6.97
2022-10-07T21:19:56.351Z,7.60
2022-10-07T21:24:58.541Z,7.22
2022-10-07T21:30:00.328Z,6.93
2022-10-07T21:35:01.570Z,6.90
2022-10-07T21:40:02.858Z,6.93
2022-10-07T21:45:04.354Z,7.13
2022-10-07T21:50:06.003Z,6.50
2022-10-07T21:55:07.758Z,6.53
2022-10-07T22:00:12.157Z,6.38
2022-10-07T22:05:14.390Z,6.23
2022-10-07T22:10:15.693Z,7.70
2022-10-07T22:15:17.050Z,6.88
2022-10-07T22:20:18.276Z,6.83
2022-10-07T22:25:21.052Z,6.50
2022-10-07T22:30:22.299Z,6.68
2022-10-07T22:35:30.198Z,6.90
2022-10-07T22:40:31.444Z,6.63
2022-10-07T22:45:32.940Z,6.70
2022-10-07T22:50:34.448Z,6.97
2022-10-07T22:55:37.116Z,6.40
2022-10-07T23:00:38.387Z,7.72
2022-10-07T23:05:39.659Z,7.60
2022-10-07T23:10:41.201Z,6.97
2022-10-07T23:15:42.484Z,6.72
2022-10-07T23:20:43.912Z,6.90
2022-10-07T23:25:45.185Z,8.40
2022-10-07T23:30:46.467Z,8.40
2022-10-07T23:35:47.780Z,8.13
2022-10-07T23:40:49.032Z,8.50
2022-10-07T23:45:51.009Z,7.10
2022-10-07T23:50:53.177Z,6.23
2022-10-07T23:55:54.674Z,5.85
